Ravels, Belgium
Current Conditions -  °F | °C
As of 11:29 PM on Sunday 25 Jan 2015 (Local Time) from EHGR Reporting Station
Haze Haze  
Wind Chill: 34°   Ceiling: 5000
Heat Index: 39°   Visibility: 6mi
Dew Point: 37°   Wind: 7mph
Humidity: 93%   Direction: 220°SW
Pressure: 30.3"   Gusts: NA
Location:  51.37°N, 4.99°E
Report Text: EHGR 252229Z AUTO 22006KT 9000 BR SCT022 OVC050 04/03 Q1026 BLACKWHT
Loading
Personal Weather Stations






























Interactive Weather Map New forecast layout! Learn more

10-Day Weather Forecast

Advertisements
Track Severe Weather on mobile